createdAt,value
2018-05-23T00:00:13.040Z,6.53
2018-05-23T00:02:40.618Z,6.80
2018-05-23T00:05:08.229Z,6.40
2018-05-23T00:16:15.181Z,7.07
2018-05-23T00:18:42.793Z,6.77
2018-05-23T00:21:11.132Z,6.73
2018-05-23T00:23:38.737Z,7.20
2018-05-23T00:26:06.312Z,7.23
2018-05-23T00:28:33.913Z,6.63
2018-05-23T00:31:01.521Z,6.70
2018-05-23T00:33:29.097Z,6.70
2018-05-23T00:35:56.700Z,6.63
2018-05-23T00:38:24.272Z,6.83
2018-05-23T00:40:51.864Z,6.70
2018-05-23T00:43:19.468Z,6.53
2018-05-23T00:45:47.037Z,6.53
2018-05-23T00:48:14.647Z,7.00
2018-05-23T00:50:42.225Z,7.40
2018-05-23T00:53:09.840Z,7.40
2018-05-23T00:55:38.226Z,7.10
2018-05-23T00:58:05.796Z,7.03
2018-05-23T01:00:33.412Z,7.27
2018-05-23T01:03:01.755Z,6.77
2018-05-23T01:05:29.357Z,7.40
2018-05-23T01:07:57.045Z,7.40
2018-05-23T01:10:25.333Z,7.30
2018-05-23T01:12:52.932Z,7.60
2018-05-23T01:15:20.506Z,7.60
2018-05-23T01:17:48.114Z,6.60
2018-05-23T01:20:15.712Z,7.40
2018-05-23T01:22:43.285Z,7.40
2018-05-23T01:25:10.884Z,7.30
2018-05-23T01:27:38.488Z,7.10
2018-05-23T01:30:06.842Z,7.57
2018-05-23T01:32:34.444Z,7.10
2018-05-23T01:35:02.049Z,7.40
2018-05-23T01:37:29.887Z,6.70
2018-05-23T01:39:57.489Z,7.73
2018-05-23T01:42:25.065Z,7.57
2018-05-23T01:44:52.664Z,7.60
2018-05-23T01:47:20.265Z,7.43
2018-05-23T01:49:47.840Z,7.50
2018-05-23T01:52:15.441Z,7.47
2018-05-23T01:54:43.074Z,7.93
2018-05-23T01:57:10.752Z,7.63
2018-05-23T01:59:38.351Z,7.83
2018-05-23T02:05:03.626Z,7.37
2018-05-23T02:07:31.264Z,7.90
2018-05-23T02:09:59.641Z,7.53
2018-05-23T02:12:27.253Z,7.60
2018-05-23T02:14:55.621Z,7.83
2018-05-23T02:17:23.197Z,8.07
2018-05-23T02:19:50.804Z,7.43
2018-05-23T02:22:18.420Z,8.20
2018-05-23T02:24:46.766Z,8.37
2018-05-23T02:27:16.501Z,8.07
2018-05-23T02:29:44.125Z,7.80
2018-05-23T02:32:11.725Z,8.33
2018-05-23T02:34:40.100Z,8.90
2018-05-23T02:37:07.676Z,8.70
2018-05-23T02:39:35.276Z,8.10
2018-05-23T02:42:02.904Z,8.10
2018-05-23T02:44:30.472Z,7.70
2018-05-23T02:46:58.202Z,7.70
2018-05-23T02:49:25.724Z,7.13
2018-05-23T02:51:53.301Z,7.17
2018-05-23T02:54:20.907Z,7.30
2018-05-23T02:56:48.481Z,7.13
2018-05-23T02:59:16.089Z,7.70
2018-05-23T03:01:43.689Z,7.87
2018-05-23T03:04:11.266Z,7.90
2018-05-23T03:06:38.972Z,7.97
2018-05-23T03:09:06.548Z,8.10
2018-05-23T03:11:34.149Z,8.30
2018-05-23T03:14:01.757Z,8.37
2018-05-23T03:16:29.329Z,8.67
2018-05-23T03:18:57.697Z,8.77
2018-05-23T03:21:25.276Z,8.87
2018-05-23T03:23:52.889Z,8.97
2018-05-23T03:26:20.500Z,9.03
2018-05-23T03:28:48.844Z,8.63
2018-05-23T03:31:16.444Z,8.87
2018-05-23T03:33:44.016Z,9.13
2018-05-23T03:36:11.617Z,8.90
2018-05-23T03:38:39.228Z,9.33
2018-05-23T03:41:06.817Z,8.90
2018-05-23T03:43:34.427Z,9.43
2018-05-23T03:46:02.769Z,9.10
2018-05-23T03:48:30.436Z,9.37
2018-05-23T04:05:50.971Z,9.37
2018-05-23T04:08:19.344Z,8.87
2018-05-23T04:10:46.921Z,8.93
2018-05-23T04:13:15.303Z,9.60
2018-05-23T04:15:42.880Z,8.80
2018-05-23T04:18:10.504Z,9.20
2018-05-23T04:20:38.108Z,9.43
2018-05-23T04:23:05.685Z,9.60
2018-05-23T04:25:33.294Z,9.50
2018-05-23T04:28:00.869Z,9.20
2018-05-23T04:30:28.476Z,9.20
2018-05-23T04:32:56.077Z,9.00
2018-05-23T04:35:23.656Z,9.23
2018-05-23T04:37:51.265Z,9.30
2018-05-23T04:40:18.859Z,9.27
2018-05-23T04:42:46.485Z,9.53
2018-05-23T04:45:33.745Z,9.33
2018-05-23T04:48:01.379Z,9.27
2018-05-23T04:50:29.022Z,9.47
2018-05-23T04:52:59.542Z,9.60
2018-05-23T04:55:27.254Z,10.53
2018-05-23T04:57:54.962Z,12.13
2018-05-23T05:00:22.635Z,11.50
2018-05-23T05:02:50.309Z,11.50
2018-05-23T05:05:18.718Z,10.37
2018-05-23T05:07:46.385Z,11.17
2018-05-23T05:10:14.849Z,9.83
2018-05-23T05:12:42.485Z,12.40
2018-05-23T05:15:10.922Z,12.60
2018-05-23T05:17:38.559Z,11.97
2018-05-23T05:20:06.242Z,12.27
2018-05-23T05:22:33.854Z,11.70
2018-05-23T05:25:01.548Z,12.53
2018-05-23T05:27:29.159Z,12.07
2018-05-23T05:29:56.791Z,11.47
2018-05-23T05:32:24.457Z,12.43
2018-05-23T05:34:52.102Z,12.10
2018-05-23T05:37:19.770Z,12.20
2018-05-23T05:39:47.541Z,11.53
2018-05-23T05:42:15.166Z,11.07
2018-05-23T05:44:42.821Z,11.90
2018-05-23T05:47:11.206Z,11.63
2018-05-23T05:49:38.902Z,11.47
2018-05-23T05:52:06.542Z,11.20
2018-05-23T05:54:34.173Z,11.77
2018-05-23T05:57:01.870Z,11.90
2018-05-23T05:59:30.287Z,11.27
2018-05-23T06:01:58.830Z,11.50
2018-05-23T06:04:26.442Z,10.63
2018-05-23T06:06:54.053Z,11.20
2018-05-23T06:09:22.571Z,10.43
2018-05-23T06:11:50.163Z,11.63
2018-05-23T06:14:17.810Z,11.87
2018-05-23T06:16:45.481Z,11.17
2018-05-23T06:19:13.125Z,10.80
2018-05-23T06:21:40.788Z,11.17
2018-05-23T06:24:08.426Z,11.67
2018-05-23T06:26:36.093Z,11.27
2018-05-23T06:29:03.819Z,11.90
2018-05-23T06:31:31.491Z,11.00
2018-05-23T06:33:59.141Z,11.53
2018-05-23T06:36:37.524Z,11.43
2018-05-23T06:39:06.126Z,11.37
2018-05-23T06:41:34.517Z,11.07
2018-05-23T06:44:02.205Z,11.90
2018-05-23T06:46:29.869Z,11.20
2018-05-23T06:48:57.505Z,10.30
2018-05-23T06:51:25.175Z,10.13
2018-05-23T06:53:52.817Z,10.37
2018-05-23T06:56:20.449Z,9.87
2018-05-23T06:58:48.138Z,10.03
2018-05-23T07:01:15.786Z,10.67
2018-05-23T07:03:44.250Z,10.90
2018-05-23T07:06:11.886Z,10.23
2018-05-23T07:08:39.501Z,11.10
2018-05-23T07:11:07.232Z,10.57
2018-05-23T07:13:34.873Z,10.17
2018-05-23T07:16:02.524Z,10.93
2018-05-23T07:18:30.202Z,12.13
2018-05-23T07:20:58.669Z,11.57
2018-05-23T07:23:26.318Z,11.57
2018-05-23T07:25:54.117Z,11.17
2018-05-23T07:28:21.693Z,11.57
2018-05-23T07:30:50.121Z,11.30
2018-05-23T07:33:17.789Z,10.87
2018-05-23T07:35:46.195Z,10.27
2018-05-23T07:38:13.864Z,11.20
2018-05-23T07:40:41.498Z,10.47
2018-05-23T07:43:09.169Z,10.47
2018-05-23T07:45:37.614Z,10.30
2018-05-23T07:48:05.265Z,10.43
2018-05-23T07:50:32.971Z,10.80
2018-05-23T07:53:00.624Z,10.93
2018-05-23T07:55:29.097Z,11.07
2018-05-23T07:57:56.771Z,10.20
2018-05-23T08:00:24.443Z,10.77
2018-05-23T08:02:52.141Z,9.70
2018-05-23T08:05:19.778Z,10.20
2018-05-23T08:07:48.240Z,9.10
2018-05-23T08:10:15.907Z,9.63
2018-05-23T08:12:43.574Z,10.97
2018-05-23T08:15:11.357Z,9.87
2018-05-23T08:17:39.777Z,10.10
2018-05-23T08:20:08.213Z,9.43
2018-05-23T08:22:35.881Z,11.13
2018-05-23T08:25:03.642Z,10.83
2018-05-23T08:27:32.056Z,11.23
2018-05-23T08:30:00.479Z,10.80
2018-05-23T08:32:28.162Z,10.57
2018-05-23T08:34:55.865Z,10.67
2018-05-23T08:37:23.591Z,10.37
2018-05-23T08:39:51.289Z,12.10
2018-05-23T08:42:18.916Z,10.80
2018-05-23T08:44:46.579Z,11.53
2018-05-23T08:47:14.282Z,10.97
2018-05-23T08:49:42.805Z,12.17
2018-05-23T08:52:11.252Z,10.97
2018-05-23T08:54:38.893Z,11.13
2018-05-23T08:57:07.342Z,11.07
2018-05-23T08:59:35.017Z,11.97
2018-05-23T09:02:02.650Z,11.77
2018-05-23T09:04:30.309Z,11.60
2018-05-23T09:06:57.978Z,11.37
2018-05-23T09:09:25.658Z,11.47
2018-05-23T09:11:53.389Z,12.40
2018-05-23T09:14:21.009Z,11.50
2018-05-23T09:16:49.440Z,11.13
2018-05-23T09:19:17.078Z,10.73
2018-05-23T09:21:44.764Z,11.87
2018-05-23T09:24:12.433Z,11.30
2018-05-23T09:26:40.120Z,11.53
2018-05-23T09:29:07.798Z,11.57
2018-05-23T09:31:35.450Z,11.80
2018-05-23T09:34:03.128Z,11.10
2018-05-23T09:36:31.564Z,11.73
2018-05-23T09:38:59.242Z,12.03
2018-05-23T09:41:26.905Z,11.90
2018-05-23T09:43:55.332Z,10.83
2018-05-23T09:46:23.017Z,10.70
2018-05-23T09:48:50.683Z,11.13
2018-05-23T09:51:19.101Z,10.77
2018-05-23T09:53:46.778Z,11.30
2018-05-23T09:56:15.194Z,12.63
2018-05-23T09:58:42.885Z,12.00
2018-05-23T10:01:10.598Z,11.33
2018-05-23T10:03:38.283Z,11.13
2018-05-23T10:06:05.937Z,11.90
2018-05-23T10:08:33.627Z,11.70
2018-05-23T10:11:01.277Z,11.43
2018-05-23T10:13:28.975Z,11.60
2018-05-23T10:15:56.634Z,12.53
2018-05-23T10:18:24.274Z,11.97
2018-05-23T10:20:51.942Z,12.33
2018-05-23T10:23:20.362Z,12.37
2018-05-23T10:25:48.798Z,12.43
2018-05-23T10:28:16.429Z,12.07
2018-05-23T10:30:44.068Z,11.57
2018-05-23T10:33:11.710Z,11.70
2018-05-23T10:35:40.130Z,10.77
2018-05-23T10:38:07.806Z,10.80
2018-05-23T10:40:36.236Z,9.80
2018-05-23T10:43:03.981Z,8.47
2018-05-23T10:45:31.643Z,9.00
2018-05-23T10:47:59.298Z,10.33
2018-05-23T10:50:27.000Z,10.10
2018-05-23T10:52:54.660Z,9.97
2018-05-23T10:55:22.342Z,10.33
2018-05-23T10:57:50.782Z,10.80
2018-05-23T11:00:18.434Z,9.30
2018-05-23T11:02:46.853Z,8.13
2018-05-23T11:05:14.491Z,9.90
2018-05-23T11:07:42.237Z,7.63
2018-05-23T11:10:09.874Z,6.30
2018-05-23T11:12:37.554Z,7.67
2018-05-23T11:15:05.467Z,8.50
2018-05-23T11:17:33.147Z,7.23
2018-05-23T11:20:00.833Z,7.80
2018-05-23T11:22:28.459Z,7.57
2018-05-23T11:24:56.903Z,6.93
2018-05-23T11:27:24.537Z,7.00
2018-05-23T11:29:52.171Z,7.00
2018-05-23T11:32:19.899Z,6.10
2018-05-23T11:34:47.529Z,6.73
2018-05-23T11:37:15.178Z,6.73
2018-05-23T11:39:42.819Z,6.67
2018-05-23T11:42:10.458Z,6.37
2018-05-23T11:44:38.090Z,6.73
2018-05-23T11:47:05.762Z,6.90
2018-05-23T11:49:33.416Z,6.80
2018-05-23T11:52:01.070Z,6.47
2018-05-23T11:54:28.732Z,6.53
2018-05-23T11:56:56.363Z,6.50
2018-05-23T11:59:24.032Z,7.00
2018-05-23T12:01:51.746Z,6.60
2018-05-23T12:04:19.393Z,7.90
2018-05-23T12:06:47.049Z,7.43
2018-05-23T12:09:15.461Z,7.40
2018-05-23T12:11:43.910Z,7.43
2018-05-23T12:14:11.557Z,8.30
2018-05-23T12:16:39.198Z,8.60
2018-05-23T12:19:06.839Z,7.90
2018-05-23T12:21:34.480Z,7.90
2018-05-23T12:24:02.135Z,7.40
2018-05-23T12:26:29.815Z,7.07
2018-05-23T12:28:57.438Z,7.93
2018-05-23T12:31:48.216Z,7.00
2018-05-23T12:34:15.838Z,7.73
2018-05-23T12:36:43.495Z,7.13
2018-05-23T12:39:11.161Z,7.23
2018-05-23T12:41:38.771Z,6.83
2018-05-23T12:44:06.498Z,6.93
2018-05-23T12:46:34.547Z,7.00
2018-05-23T12:49:02.246Z,6.30
2018-05-23T12:51:29.949Z,7.03
2018-05-23T12:53:57.614Z,7.43
2018-05-23T12:56:25.643Z,6.27
2018-05-23T12:58:53.290Z,6.70
2018-05-23T13:01:20.962Z,6.17
2018-05-23T13:03:48.639Z,7.20
2018-05-23T13:06:16.298Z,7.03
2018-05-23T13:08:43.975Z,6.77
2018-05-23T13:11:11.692Z,7.37
2018-05-23T13:13:40.113Z,6.83
2018-05-23T13:16:07.764Z,6.83
2018-05-23T13:18:36.609Z,6.03
2018-05-23T13:21:04.302Z,6.57
2018-05-23T13:23:31.939Z,6.33
2018-05-23T13:25:59.735Z,6.27
2018-05-23T13:28:27.306Z,6.60
2018-05-23T13:30:54.965Z,6.00
2018-05-23T13:33:22.654Z,6.00
2018-05-23T13:35:50.478Z,6.30
2018-05-23T13:38:18.158Z,6.40
2018-05-23T13:40:45.817Z,6.90
2018-05-23T13:43:13.458Z,6.30
2018-05-23T13:45:41.135Z,6.03
2018-05-23T13:48:08.794Z,6.33
2018-05-23T13:50:37.254Z,6.30
2018-05-23T13:53:04.910Z,7.07
2018-05-23T13:55:32.517Z,6.17
2018-05-23T13:58:00.219Z,6.97
2018-05-23T14:00:27.894Z,6.53
2018-05-23T14:02:55.561Z,8.30
2018-05-23T14:05:23.217Z,8.10
2018-05-23T14:07:51.637Z,7.90
2018-05-23T14:10:19.427Z,8.27
2018-05-23T14:12:47.094Z,9.13
2018-05-23T14:15:15.506Z,7.73
2018-05-23T14:17:43.939Z,8.57
2018-05-23T14:20:11.579Z,7.50
2018-05-23T14:22:39.242Z,7.80
2018-05-23T14:25:06.942Z,8.40
2018-05-23T14:27:34.591Z,7.33
2018-05-23T14:30:02.261Z,7.83
2018-05-23T14:32:29.917Z,7.90
2018-05-23T14:34:57.619Z,8.63
2018-05-23T14:37:26.053Z,8.60
2018-05-23T14:39:53.750Z,8.50
2018-05-23T14:42:21.419Z,8.50
2018-05-23T14:44:49.068Z,9.30
2018-05-23T14:47:16.769Z,7.87
2018-05-23T14:49:44.539Z,7.80
2018-05-23T14:52:12.998Z,8.00
2018-05-23T14:54:40.613Z,7.00
2018-05-23T14:57:08.963Z,7.27
2018-05-23T14:59:36.577Z,7.40
2018-05-23T15:02:04.156Z,7.10
2018-05-23T15:04:31.757Z,7.97
2018-05-23T15:06:59.362Z,8.60
2018-05-23T15:09:27.706Z,8.10
2018-05-23T15:11:55.321Z,8.33
2018-05-23T15:14:23.003Z,7.73
2018-05-23T15:16:50.562Z,7.97
2018-05-23T15:19:18.175Z,8.53
2018-05-23T15:21:45.761Z,8.10
2018-05-23T15:24:13.368Z,9.00
2018-05-23T15:26:41.031Z,10.00
2018-05-23T15:29:08.647Z,9.43
2018-05-23T15:31:37.021Z,7.90
2018-05-23T15:34:04.594Z,8.17
2018-05-23T15:36:32.196Z,8.43
2018-05-23T15:38:59.769Z,9.27
2018-05-23T15:41:27.381Z,10.23
2018-05-23T15:43:54.988Z,9.47
2018-05-23T15:46:23.368Z,8.47
2018-05-23T15:48:51.143Z,7.80
2018-05-23T15:51:18.713Z,8.00
2018-05-23T15:53:46.350Z,7.83
2018-05-23T15:56:13.974Z,7.33
2018-05-23T15:58:41.561Z,6.33
2018-05-23T16:01:09.236Z,4.90
2018-05-23T16:03:37.580Z,4.07
2018-05-23T16:06:05.197Z,4.67
2018-05-23T16:08:33.036Z,4.90
2018-05-23T16:11:00.612Z,4.67
2018-05-23T16:13:28.981Z,4.80
2018-05-23T16:15:56.565Z,5.40
2018-05-23T16:18:24.180Z,5.27
2018-05-23T16:20:51.780Z,5.57
2018-05-23T16:23:20.121Z,5.57
2018-05-23T16:25:47.724Z,5.60
2018-05-23T16:28:15.301Z,5.30
2018-05-23T16:30:42.913Z,5.17
2018-05-23T16:33:10.489Z,5.57
2018-05-23T16:35:38.101Z,5.40
2018-05-23T16:38:05.681Z,5.77
2018-05-23T16:40:33.297Z,5.70
2018-05-23T16:43:00.914Z,5.33
2018-05-23T16:45:28.512Z,5.13
2018-05-23T16:47:56.113Z,5.47
2018-05-23T16:50:23.697Z,4.87
2018-05-23T16:52:51.347Z,4.47
2018-05-23T16:55:18.946Z,4.60
2018-05-23T16:57:46.556Z,4.67
2018-05-23T17:00:14.163Z,4.90
2018-05-23T17:02:41.770Z,4.77
2018-05-23T17:05:10.181Z,4.70
2018-05-23T17:07:37.823Z,5.20
2018-05-23T17:10:05.511Z,5.23
2018-05-23T17:12:33.182Z,5.70
2018-05-23T17:15:02.162Z,5.20
2018-05-23T17:17:30.628Z,5.17
2018-05-23T17:19:58.271Z,5.20
2018-05-23T17:22:26.714Z,5.40
2018-05-23T17:24:54.345Z,5.10
2018-05-23T17:27:22.821Z,5.30
2018-05-23T17:29:50.482Z,5.10
2018-05-23T17:32:18.082Z,5.40
2018-05-23T17:34:45.903Z,5.53
2018-05-23T17:37:13.717Z,5.00
2018-05-23T17:39:41.394Z,5.60
2018-05-23T17:42:09.063Z,4.93
2018-05-23T17:44:37.645Z,4.80
2018-05-23T17:47:06.463Z,4.73
2018-05-23T17:49:34.958Z,4.93
2018-05-23T17:52:02.676Z,4.70
2018-05-23T17:54:31.194Z,5.20
2018-05-23T17:56:58.846Z,4.83
2018-05-23T18:02:20.810Z,4.97
2018-05-23T18:13:49.438Z,5.10
2018-05-23T18:16:17.905Z,4.80
2018-05-23T18:18:45.634Z,5.30
2018-05-23T18:21:13.274Z,5.10
2018-05-23T18:23:50.706Z,5.30
2018-05-23T18:26:25.062Z,4.93
2018-05-23T18:28:52.718Z,5.50
2018-05-23T18:31:20.352Z,5.73
2018-05-23T18:33:48.729Z,5.77
2018-05-23T18:36:16.398Z,5.13
2018-05-23T18:38:44.049Z,4.90
2018-05-23T18:41:11.738Z,5.60
2018-05-23T18:43:44.148Z,5.53
2018-05-23T18:46:11.788Z,4.80
2018-05-23T18:48:39.484Z,5.33
2018-05-23T18:51:07.120Z,5.33
2018-05-23T18:53:34.786Z,5.50
2018-05-23T18:56:03.206Z,5.60
2018-05-23T18:58:32.166Z,5.23
2018-05-23T19:00:59.938Z,5.27
2018-05-23T19:03:27.555Z,5.20
2018-05-23T19:05:55.295Z,5.27
2018-05-23T19:08:22.937Z,5.53
2018-05-23T19:10:50.606Z,5.70
2018-05-23T19:13:18.275Z,5.70
2018-05-23T19:15:45.908Z,5.87
2018-05-23T19:18:13.658Z,5.47
2018-05-23T19:20:41.313Z,5.77
2018-05-23T19:23:08.973Z,5.70
2018-05-23T19:25:36.653Z,6.10
2018-05-23T19:28:05.199Z,6.70
2018-05-23T19:30:33.102Z,6.03
2018-05-23T19:33:09.512Z,5.73
2018-05-23T19:35:37.469Z,6.33
2018-05-23T19:38:05.138Z,7.47
2018-05-23T19:40:33.595Z,7.87
2018-05-23T19:43:01.383Z,7.83
2018-05-23T19:45:29.034Z,8.20
2018-05-23T19:47:57.539Z,7.93
2018-05-23T19:50:25.959Z,6.80
2018-05-23T19:52:54.485Z,6.57
2018-05-23T19:55:29.369Z,7.10
2018-05-23T20:00:49.882Z,6.87
2018-05-23T20:03:18.333Z,6.70
2018-05-23T20:05:46.010Z,6.73
2018-05-23T20:08:13.634Z,6.83
2018-05-23T20:10:41.338Z,6.70
2018-05-23T20:13:08.990Z,6.83
2018-05-23T20:18:37.466Z,6.70
2018-05-23T20:21:09.533Z,6.53
2018-05-23T20:23:37.170Z,6.60
2018-05-23T20:26:04.840Z,6.47
2018-05-23T20:28:33.859Z,6.90
2018-05-23T20:31:02.297Z,7.47
2018-05-23T20:33:29.992Z,7.20
2018-05-23T20:35:58.437Z,7.13
2018-05-23T20:38:26.854Z,7.17
2018-05-23T20:40:55.563Z,7.20
2018-05-23T20:43:23.287Z,7.30
2018-05-23T20:45:50.955Z,7.07
2018-05-23T20:48:18.617Z,6.97
2018-05-23T20:50:47.244Z,7.63
2018-05-23T20:53:15.713Z,7.60
2018-05-23T20:55:43.652Z,7.17
2018-05-23T20:58:11.379Z,7.80
2018-05-23T21:00:39.019Z,7.23
2018-05-23T21:03:06.879Z,7.90
2018-05-23T21:05:34.556Z,7.53
2018-05-23T21:08:02.286Z,8.43
2018-05-23T21:10:30.826Z,8.13
2018-05-23T21:12:58.537Z,7.83
2018-05-23T21:15:26.266Z,8.17
2018-05-23T21:17:54.865Z,8.27
2018-05-23T21:20:22.516Z,7.80
2018-05-23T21:22:50.495Z,8.60
2018-05-23T21:25:18.985Z,8.20
2018-05-23T21:27:48.305Z,7.83
2018-05-23T21:30:15.956Z,8.47
2018-05-23T21:32:44.449Z,8.27
2018-05-23T21:35:12.102Z,8.40
2018-05-23T21:37:40.499Z,8.67
2018-05-23T21:40:08.917Z,8.53
2018-05-23T21:42:37.308Z,8.93
2018-05-23T21:45:04.981Z,7.80
2018-05-23T21:47:32.608Z,8.03
2018-05-23T21:50:00.311Z,9.10
2018-05-23T21:52:27.967Z,8.17
2018-05-23T21:54:56.372Z,8.30
2018-05-23T21:57:24.830Z,9.07
2018-05-23T21:59:52.432Z,8.70
2018-05-23T22:02:20.143Z,8.63
2018-05-23T22:04:47.841Z,8.47
2018-05-23T22:07:15.464Z,8.33
2018-05-23T22:09:43.125Z,9.67
2018-05-23T22:12:10.970Z,9.53
2018-05-23T22:14:38.629Z,9.30
2018-05-23T22:17:06.358Z,9.87
2018-05-23T22:19:34.014Z,10.37
2018-05-23T22:22:01.670Z,10.30
2018-05-23T22:24:29.386Z,10.10
2018-05-23T22:26:57.037Z,10.33
2018-05-23T22:29:24.732Z,11.00
2018-05-23T22:31:53.121Z,10.10
2018-05-23T22:34:20.762Z,10.33
2018-05-23T22:36:48.432Z,10.80
2018-05-23T22:39:16.215Z,10.80
2018-05-23T22:41:43.914Z,12.00
2018-05-23T22:44:11.665Z,11.40
2018-05-23T22:46:40.121Z,11.70
2018-05-23T22:49:07.754Z,10.73
2018-05-23T22:51:36.231Z,10.93
2018-05-23T22:54:03.954Z,11.03
2018-05-23T22:56:32.329Z,11.03
2018-05-23T22:59:00.750Z,11.23
2018-05-23T23:01:28.384Z,10.40
2018-05-23T23:03:56.038Z,10.93
2018-05-23T23:06:23.745Z,11.07
2018-05-23T23:08:51.366Z,11.10
2018-05-23T23:11:19.054Z,11.13
2018-05-23T23:13:46.689Z,11.00
2018-05-23T23:16:15.169Z,10.97
2018-05-23T23:18:42.923Z,11.80
2018-05-23T23:21:10.561Z,11.37
2018-05-23T23:23:38.320Z,11.83
2018-05-23T23:26:05.945Z,11.03
2018-05-23T23:28:34.430Z,12.27
2018-05-23T23:31:02.075Z,12.40
2018-05-23T23:33:29.781Z,11.97
2018-05-23T23:35:57.423Z,12.00
2018-05-23T23:38:25.090Z,11.37
2018-05-23T23:40:52.824Z,11.50
2018-05-23T23:43:20.475Z,11.40
2018-05-23T23:45:48.149Z,12.00
2018-05-23T23:48:16.529Z,12.63
2018-05-23T23:50:44.211Z,12.47
2018-05-23T23:53:11.874Z,11.40
2018-05-23T23:55:39.517Z,12.20
2018-05-23T23:58:07.186Z,12.00
